Time;durP1;ratioP1;P1;durP2;ratioP2;P2;SDS_P1;SDS_P2;PMS_P1;PMS_P2;Temp;Humidity;BMP_temperature;BMP_pressure;BME280_temperature;BME280_humidity;BME280_pressure;Samples;Min_cycle;Max_cycle;Signal;HPM_P1;HPM_P2
2023/03/25 00:01:52;;;;;;;1999.90;999.90;;;10.60;99.90;;;;;;5112421;28;20421;-72
2023/03/25 00:04:19;;;;;;;1999.90;999.90;;;10.60;99.90;;;;;;5111961;28;20428;-71
2023/03/25 00:06:46;;;;;;;1999.90;999.90;;;10.70;99.90;;;;;;5111920;28;20412;-71
2023/03/25 00:09:14;;;;;;;1999.90;999.90;;;10.60;99.90;;;;;;5110689;28;21001;-73
2023/03/25 00:11:41;;;;;;;1999.90;999.90;;;10.50;99.90;;;;;;5114338;28;20408;-71
2023/03/25 00:14:07;;;;;;;1999.90;999.90;;;10.50;99.90;;;;;;5113667;28;20411;-73
2023/03/25 00:16:35;;;;;;;1999.90;999.90;;;10.60;99.90;;;;;;5112817;28;20474;-72
2023/03/25 00:19:02;;;;;;;1999.90;999.90;;;10.50;99.90;;;;;;5112897;28;20425;-72
2023/03/25 00:21:32;;;;;;;1999.90;999.90;;;10.50;99.90;;;;;;5111381;28;20783;-72
2023/03/25 00:23:59;;;;;;;1999.90;999.90;;;10.50;99.90;;;;;;5112383;28;20417;-76
2023/03/25 00:26:28;;;;;;;1999.90;999.90;;;10.50;99.90;;;;;;5113617;28;20415;-73
2023/03/25 00:28:55;;;;;;;1999.90;999.90;;;10.50;99.90;;;;;;5113219;28;20444;-73
2023/03/25 00:31:22;;;;;;;1999.90;999.90;;;10.40;99.90;;;;;;5113952;28;20470;-72
2023/03/25 00:33:49;;;;;;;1999.90;999.90;;;10.30;99.90;;;;;;5112600;28;20431;-73
2023/03/25 00:36:16;;;;;;;1999.90;999.90;;;10.30;99.90;;;;;;5113150;28;20408;-71
2023/03/25 00:38:44;;;;;;;1999.90;999.90;;;10.30;99.90;;;;;;5113350;28;20416;-71
2023/03/25 00:41:13;;;;;;;1999.90;999.90;;;10.20;99.90;;;;;;5113544;28;20513;-72
2023/03/25 00:43:41;;;;;;;1999.90;999.90;;;10.20;99.90;;;;;;5112953;28;20763;-71
2023/03/25 00:46:07;;;;;;;1999.90;999.90;;;10.10;99.90;;;;;;5111882;28;20844;-73
2023/03/25 00:48:34;;;;;;;1999.90;999.90;;;10.10;99.90;;;;;;5111337;28;20867;-72
2023/03/25 00:51:06;;;;;;;1999.90;999.90;;;10.20;99.90;;;;;;5111419;28;20973;-72
2023/03/25 00:53:33;;;;;;;1999.90;999.90;;;10.30;99.90;;;;;;5111418;28;20423;-72
2023/03/25 00:56:01;;;;;;;1999.90;999.90;;;10.30;99.90;;;;;;5111059;28;20415;-73
2023/03/25 00:58:28;;;;;;;1999.90;999.90;;;10.20;99.90;;;;;;5110022;28;20434;-72
2023/03/25 01:00:56;;;;;;;1999.90;999.90;;;10.10;99.90;;;;;;5111119;28;20416;-74
2023/03/25 01:03:23;;;;;;;1999.90;999.90;;;10.10;99.90;;;;;;5111693;28;20849;-72
2023/03/25 01:05:53;;;;;;;1999.90;999.90;;;10.10;99.90;;;;;;5110873;28;20534;-72
2023/03/25 01:08:24;;;;;;;1999.90;999.90;;;10.20;99.90;;;;;;5109431;28;20428;-70
2023/03/25 01:10:53;;;;;;;1999.90;999.90;;;10.30;99.90;;;;;;5110737;28;22263;-72
2023/03/25 01:13:20;;;;;;;1999.90;999.90;;;10.30;99.90;;;;;;5110880;28;20778;-71
2023/03/25 01:15:47;;;;;;;1999.90;999.90;;;10.30;99.90;;;;;;5110841;28;20400;-74
2023/03/25 01:18:16;;;;;;;1999.90;999.90;;;10.30;99.90;;;;;;5110365;28;20404;-69
2023/03/25 01:20:43;;;;;;;1999.90;999.90;;;10.20;99.90;;;;;;5109652;28;20496;-72
2023/03/25 01:23:10;;;;;;;1999.90;999.90;;;10.20;99.90;;;;;;5110272;28;20415;-73
2023/03/25 01:25:37;;;;;;;1999.90;999.90;;;10.20;99.90;;;;;;5110532;28;20424;-73
2023/03/25 01:28:05;;;;;;;1999.90;999.90;;;10.00;99.90;;;;;;5110460;28;20465;-74
2023/03/25 01:30:31;;;;;;;1999.90;999.90;;;10.00;99.90;;;;;;5110487;28;20508;-73
2023/03/25 01:32:58;;;;;;;1999.90;999.90;;;10.00;99.90;;;;;;5109821;28;20836;-74
2023/03/25 01:35:26;;;;;;;1999.90;999.90;;;10.00;99.90;;;;;;5110195;28;20755;-73
2023/03/25 01:37:54;;;;;;;1999.90;999.90;;;10.00;99.90;;;;;;5110980;28;20492;-78
2023/03/25 01:40:23;;;;;;;1999.90;999.90;;;10.10;99.90;;;;;;5110849;28;20949;-73
2023/03/25 01:42:50;;;;;;;1999.90;999.90;;;10.10;99.90;;;;;;5111783;28;20436;-73
2023/03/25 01:45:25;;;;;;;1999.90;999.90;;;10.10;99.90;;;;;;5109891;28;20423;-74
2023/03/25 01:48:01;;;;;;;1999.90;999.90;;;10.00;99.90;;;;;;5111899;28;20816;-71
2023/03/25 01:50:31;;;;;;;1999.90;999.90;;;10.00;99.90;;;;;;5112487;28;20432;-73
2023/03/25 01:53:00;;;;;;;1999.90;999.90;;;10.00;99.90;;;;;;5112738;28;20421;-72
2023/03/25 01:55:27;;;;;;;1999.90;999.90;;;10.10;99.90;;;;;;5112226;28;20412;-72
2023/03/25 01:57:58;;;;;;;1999.90;999.90;;;10.30;99.90;;;;;;5114721;28;20903;-72
2023/03/25 02:00:26;;;;;;;1999.90;999.90;;;10.20;99.90;;;;;;5116681;28;20441;-71
2023/03/25 02:02:58;;;;;;;1999.90;999.90;;;10.40;99.90;;;;;;5116625;28;20443;-74
2023/03/25 02:05:33;;;;;;;1999.90;999.90;;;10.20;99.90;;;;;;5116856;28;20506;-69
2023/03/25 02:08:02;;;;;;;1999.90;999.90;;;10.30;99.90;;;;;;5114736;28;20420;-72
2023/03/25 02:10:29;;;;;;;1999.90;999.90;;;10.30;99.90;;;;;;5115400;28;20423;-72
2023/03/25 02:12:56;;;;;;;1999.90;999.90;;;10.20;99.90;;;;;;5115321;28;20751;-75
2023/03/25 02:15:23;;;;;;;1999.90;999.90;;;10.20;99.90;;;;;;5115373;28;20419;-72
2023/03/25 02:18:16;;;;;;;1999.90;999.90;;;10.20;99.90;;;;;;5114689;28;20898;-72
2023/03/25 02:21:12;;;;;;;1999.90;999.90;;;10.20;99.90;;;;;;5113331;28;20556;-72
2023/03/25 02:24:22;;;;;;;1999.90;999.90;;;10.10;99.90;;;;;;5113133;28;20408;-75
2023/03/25 02:27:13;;;;;;;1999.90;999.90;;;10.00;99.90;;;;;;5116104;28;20425;-73
2023/03/25 02:29:57;;;;;;;1999.90;999.90;;;10.10;99.90;;;;;;5114783;28;20412;-75
2023/03/25 02:32:43;;;;;;;1999.90;999.90;;;10.00;99.90;;;;;;5113749;28;20558;-73
2023/03/25 02:35:32;;;;;;;1999.90;999.90;;;10.00;99.90;;;;;;5114053;28;20408;-73
2023/03/25 02:38:17;;;;;;;1999.90;999.90;;;10.00;99.90;;;;;;5109343;28;20477;-72
2023/03/25 02:40:50;;;;;;;1999.90;999.90;;;9.90;99.90;;;;;;5114107;28;20457;-73
2023/03/25 02:43:24;;;;;;;1999.90;999.90;;;9.90;99.90;;;;;;5113292;28;20441;-72
2023/03/25 02:45:54;;;;;;;1999.90;999.90;;;10.10;99.90;;;;;;5113682;28;20962;-74
2023/03/25 02:48:27;;;;;;;1999.90;999.90;;;10.20;99.90;;;;;;5113201;28;20416;-72
2023/03/25 02:50:57;;;;;;;1999.90;999.90;;;10.30;99.90;;;;;;5113865;28;20477;-72
2023/03/25 02:53:29;;;;;;;1999.90;999.90;;;10.20;99.90;;;;;;5112781;28;20509;-72
2023/03/25 02:56:00;;;;;;;1999.90;999.90;;;10.30;99.90;;;;;;5113890;28;20835;-74
2023/03/25 02:58:29;;;;;;;1999.90;999.90;;;10.30;99.90;;;;;;5110464;28;20424;-72
2023/03/25 03:00:57;;;;;;;1999.90;999.90;;;10.30;99.90;;;;;;5112688;28;20428;-72
2023/03/25 03:03:25;;;;;;;1999.90;999.90;;;10.10;99.90;;;;;;5113431;28;20424;-71
2023/03/25 03:05:55;;;;;;;1999.90;999.90;;;10.00;99.90;;;;;;5113405;28;20493;-72
2023/03/25 03:08:36;;;;;;;1999.90;999.90;;;10.00;99.90;;;;;;5111815;28;20428;-71
2023/03/25 03:11:11;;;;;;;1999.90;999.90;;;10.00;99.90;;;;;;5113095;28;20777;-72
2023/03/25 03:13:57;;;;;;;1999.90;999.90;;;10.10;99.90;;;;;;5113082;28;20439;-71
2023/03/25 03:16:31;;;;;;;1999.90;999.90;;;10.20;99.90;;;;;;5113809;28;20871;-72
2023/03/25 03:19:07;;;;;;;1999.90;999.90;;;10.10;99.90;;;;;;5112879;28;20432;-72
2023/03/25 03:21:39;;;;;;;1999.90;999.90;;;9.90;99.90;;;;;;5114301;28;20480;-72
2023/03/25 03:24:12;;;;;;;1999.90;999.90;;;10.00;99.90;;;;;;5114024;28;20401;-71
2023/03/25 03:26:45;;;;;;;1999.90;999.90;;;10.00;99.90;;;;;;5113560;28;20428;-74
2023/03/25 03:29:16;;;;;;;1999.90;999.90;;;10.00;99.90;;;;;;5111782;28;20439;-72
2023/03/25 03:31:45;;;;;;;1999.90;999.90;;;10.00;99.90;;;;;;5112417;28;20461;-71
2023/03/25 03:34:18;;;;;;;1999.90;999.90;;;10.10;99.90;;;;;;5112450;28;20408;-75
2023/03/25 03:36:48;;;;;;;1999.90;999.90;;;10.00;99.90;;;;;;5113338;28;20408;-74
2023/03/25 03:39:22;;;;;;;1999.90;999.90;;;10.00;99.90;;;;;;5113547;28;20519;-71
2023/03/25 03:41:53;;;;;;;1999.90;999.90;;;9.90;99.90;;;;;;5115151;28;20424;-71
2023/03/25 03:44:25;;;;;;;1999.90;999.90;;;9.90;99.90;;;;;;5114606;28;20481;-72
2023/03/25 03:46:58;;;;;;;1999.90;999.90;;;9.80;99.90;;;;;;5112939;28;20424;-68
2023/03/25 03:49:29;;;;;;;1999.90;999.90;;;9.80;99.90;;;;;;5112002;28;20424;-73
2023/03/25 03:52:02;;;;;;;1999.90;999.90;;;9.80;99.90;;;;;;5113434;28;20894;-72
2023/03/25 03:54:35;;;;;;;1999.90;999.90;;;9.70;99.90;;;;;;5113152;28;20396;-74
2023/03/25 03:57:06;;;;;;;1999.90;999.90;;;9.60;99.90;;;;;;5112818;28;20420;-74
2023/03/25 03:59:40;;;;;;;1999.90;999.90;;;9.40;99.90;;;;;;5112591;28;20428;-75
2023/03/25 04:02:13;;;;;;;1999.90;999.90;;;9.30;99.90;;;;;;5114020;28;20416;-72
2023/03/25 04:04:41;;;;;;;1999.90;999.90;;;9.20;99.90;;;;;;5113766;28;20408;-70
2023/03/25 04:07:15;;;;;;;1999.90;999.90;;;9.20;99.90;;;;;;5113891;28;20839;-73
2023/03/25 04:09:54;;;;;;;1999.90;999.90;;;9.40;99.90;;;;;;5111334;28;20960;-73
2023/03/25 04:12:25;;;;;;;1999.90;999.90;;;9.40;99.90;;;;;;5112273;28;20416;-72
2023/03/25 04:14:53;;;;;;;1999.90;999.90;;;9.40;99.90;;;;;;5111748;28;20422;-72
2023/03/25 04:17:20;;;;;;;1999.90;999.90;;;9.30;99.90;;;;;;5111513;28;20457;-69
2023/03/25 04:19:47;;;;;;;1999.90;999.90;;;9.30;99.90;;;;;;5103639;28;20428;-74
2023/03/25 04:22:17;;;;;;;1999.90;999.90;;;9.20;99.90;;;;;;5111443;28;20435;-72
2023/03/25 04:24:48;;;;;;;1999.90;999.90;;;9.30;99.90;;;;;;5111751;28;20404;-72
2023/03/25 04:29:43;;;;;;;1999.90;999.90;;;9.20;99.90;;;;;;5106549;22;20495;-63
2023/03/25 04:32:11;;;;;;;1999.90;999.90;;;9.20;99.90;;;;;;5091051;28;20416;-63
2023/03/25 04:34:38;;;;;;;1999.90;999.90;;;9.20;99.90;;;;;;5090704;28;20418;-65
2023/03/25 04:37:04;;;;;;;1999.90;999.90;;;9.00;99.90;;;;;;5090370;28;20942;-65
2023/03/25 04:39:32;;;;;;;1999.90;999.90;;;9.10;99.90;;;;;;5089921;28;20438;-66
2023/03/25 04:42:02;;;;;;;1999.90;999.90;;;9.10;99.90;;;;;;5090349;28;20421;-65
2023/03/25 04:44:32;;;;;;;1999.90;999.90;;;9.10;99.90;;;;;;5090295;28;20491;-65
2023/03/25 04:46:59;;;;;;;1999.90;999.90;;;9.20;99.90;;;;;;5090084;28;20426;-65
2023/03/25 04:49:26;;;;;;;1999.90;999.90;;;9.10;99.90;;;;;;5089655;28;20517;-65
2023/03/25 04:51:55;;;;;;;1999.90;999.90;;;9.10;99.90;;;;;;5090283;28;20876;-65
2023/03/25 04:54:22;;;;;;;1999.90;999.90;;;9.30;99.90;;;;;;5090227;28;20449;-65
2023/03/25 04:56:49;;;;;;;1999.90;999.90;;;9.30;99.90;;;;;;5090194;28;21137;-65
2023/03/25 04:59:18;;;;;;;1999.90;999.90;;;9.30;99.90;;;;;;5089533;28;20462;-65
2023/03/25 05:01:46;;;;;;;1999.90;999.90;;;9.30;99.90;;;;;;5082052;28;20414;-66
2023/03/25 05:04:16;;;;;;;1999.90;999.90;;;9.40;99.90;;;;;;5090210;28;20537;-64
2023/03/25 05:06:45;;;;;;;1999.90;999.90;;;9.40;99.90;;;;;;5090007;28;20503;-65
2023/03/25 05:09:15;;;;;;;1999.90;999.90;;;9.40;99.90;;;;;;5088897;28;20461;-66
2023/03/25 05:11:42;;;;;;;1999.90;999.90;;;9.40;99.90;;;;;;5090068;28;20416;-65
2023/03/25 05:14:10;;;;;;;1999.90;999.90;;;9.30;99.90;;;;;;5090094;28;20417;-65
2023/03/25 05:16:38;;;;;;;1999.90;999.90;;;9.30;99.90;;;;;;5088247;28;20475;-65
2023/03/25 05:19:06;;;;;;;1999.90;999.90;;;9.20;99.90;;;;;;5090011;28;20468;-64
2023/03/25 05:21:34;;;;;;;1999.90;999.90;;;9.10;99.90;;;;;;5089807;28;20451;-66
2023/03/25 05:24:01;;;;;;;1999.90;999.90;;;9.10;99.90;;;;;;5090020;28;20425;-67
2023/03/25 05:26:33;;;;;;;1999.90;999.90;;;9.10;99.90;;;;;;5088667;28;20452;-67
2023/03/25 05:29:00;;;;;;;1999.90;999.90;;;9.20;99.90;;;;;;5089753;28;20479;-68
2023/03/25 05:31:27;;;;;;;1999.90;999.90;;;9.30;99.90;;;;;;5086504;28;20970;-65
2023/03/25 05:33:55;;;;;;;1999.90;999.90;;;9.40;99.90;;;;;;5084029;28;21070;-68
2023/03/25 05:36:23;;;;;;;1999.90;999.90;;;9.40;99.90;;;;;;5084702;28;20949;-66
2023/03/25 05:38:53;;;;;;;1999.90;999.90;;;9.40;99.90;;;;;;5087964;28;20509;-67
2023/03/25 05:41:21;;;;;;;1999.90;999.90;;;9.40;99.90;;;;;;5086596;28;20437;-66
2023/03/25 05:43:49;;;;;;;1999.90;999.90;;;9.40;99.90;;;;;;5085521;28;20457;-65
2023/03/25 05:46:17;;;;;;;1999.90;999.90;;;9.30;99.90;;;;;;5086973;28;20516;-67
2023/03/25 05:48:44;;;;;;;1999.90;999.90;;;9.30;99.90;;;;;;5080961;28;21051;-65
2023/03/25 05:51:14;;;;;;;1999.90;999.90;;;9.40;99.90;;;;;;5078438;28;21193;-65
2023/03/25 05:53:42;;;;;;;1999.90;999.90;;;9.40;99.90;;;;;;5071299;28;20805;-65
2023/03/25 05:56:09;;;;;;;1999.90;999.90;;;9.40;99.90;;;;;;5084742;28;20517;-65
2023/03/25 05:58:36;;;;;;;1999.90;999.90;;;9.50;99.90;;;;;;5077017;28;20852;-65
2023/03/25 06:01:04;;;;;;;1999.90;999.90;;;9.50;99.90;;;;;;5075788;28;20932;-65
2023/03/25 06:03:33;;;;;;;1999.90;999.90;;;9.60;99.90;;;;;;5084942;28;20449;-64
2023/03/25 06:06:00;;;;;;;1999.90;999.90;;;9.50;99.90;;;;;;5081659;28;20469;-68
2023/03/25 06:08:28;;;;;;;1999.90;999.90;;;9.60;99.90;;;;;;5076269;28;20514;-65
2023/03/25 06:10:57;;;;;;;1999.90;999.90;;;9.70;99.90;;;;;;5087759;28;20512;-66
2023/03/25 06:13:24;;;;;;;1999.90;999.90;;;9.60;99.90;;;;;;5079354;28;20520;-66
2023/03/25 06:15:54;;;;;;;1999.90;999.90;;;9.40;99.90;;;;;;5086182;28;20579;-66
2023/03/25 06:18:23;;;;;;;1999.90;999.90;;;9.50;99.90;;;;;;5079322;28;20418;-63
2023/03/25 06:20:52;;;;;;;1999.90;999.90;;;9.50;99.90;;;;;;5087855;28;20429;-65
2023/03/25 06:23:21;;;;;;;1999.90;999.90;;;9.40;99.90;;;;;;5079894;28;20427;-64
2023/03/25 06:25:49;;;;;;;1999.90;999.90;;;9.40;99.90;;;;;;5086133;28;20487;-66
2023/03/25 06:28:17;;;;;;;1999.90;999.90;;;9.30;99.90;;;;;;5078565;28;20874;-66
2023/03/25 06:30:44;;;;;;;1999.90;999.90;;;9.30;99.90;;;;;;5087337;28;20420;-66
2023/03/25 06:33:12;;;;;;;1999.90;999.90;;;9.10;99.90;;;;;;5087252;28;20799;-67
2023/03/25 06:35:39;;;;;;;1999.90;999.90;;;9.10;99.90;;;;;;5078133;28;20430;-65
2023/03/25 06:38:06;;;;;;;1999.90;999.90;;;9.10;99.90;;;;;;5078674;28;20438;-65
2023/03/25 06:40:33;;;;;;;1999.90;999.90;;;9.10;99.90;;;;;;5078545;28;20897;-65
2023/03/25 06:43:01;;;;;;;1999.90;999.90;;;9.10;99.90;;;;;;5082837;28;20427;-65
2023/03/25 06:45:28;;;;;;;1999.90;999.90;;;9.10;99.90;;;;;;5086654;28;20434;-66
2023/03/25 06:47:54;;;;;;;1999.90;999.90;;;9.20;99.90;;;;;;5082169;28;20433;-65
2023/03/25 06:50:21;;;;;;;1999.90;999.90;;;9.30;99.90;;;;;;5090737;28;20459;-66
2023/03/25 06:52:50;;;;;;;1999.90;999.90;;;9.50;99.90;;;;;;5090519;28;21226;-66
2023/03/25 06:55:17;;;;;;;1999.90;999.90;;;9.70;99.90;;;;;;5081369;28;20868;-66
2023/03/25 06:57:44;;;;;;;1999.90;999.90;;;9.90;99.90;;;;;;5081664;28;20934;-65
2023/03/25 07:00:13;;;;;;;1999.90;999.90;;;9.90;99.90;;;;;;5087168;28;20420;-66
2023/03/25 07:02:40;;;;;;;1999.90;999.90;;;10.00;99.90;;;;;;5076426;28;20408;-65
2023/03/25 07:05:07;;;;;;;1999.90;999.90;;;9.80;99.90;;;;;;5074971;28;20823;-63
2023/03/25 07:07:34;;;;;;;1999.90;999.90;;;9.90;99.90;;;;;;5083285;28;20425;-63
2023/03/25 07:10:00;;;;;;;1999.90;999.90;;;9.70;99.90;;;;;;5086979;28;20457;-66
2023/03/25 07:12:27;;;;;;;1999.90;999.90;;;9.80;99.90;;;;;;5083207;28;20431;-63
2023/03/25 07:14:54;;;;;;;1999.90;999.90;;;9.70;99.90;;;;;;5081023;28;20939;-63
2023/03/25 07:17:23;;;;;;;1999.90;999.90;;;9.70;99.90;;;;;;5081008;28;20482;-65
2023/03/25 07:19:50;;;;;;;1999.90;999.90;;;9.70;99.90;;;;;;5090123;28;20498;-66
2023/03/25 07:22:17;;;;;;;1999.90;999.90;;;9.80;99.90;;;;;;5081768;28;20414;-66
2023/03/25 07:24:44;;;;;;;1999.90;999.90;;;9.80;99.90;;;;;;5081359;28;20444;-66
2023/03/25 07:27:11;;;;;;;1999.90;999.90;;;9.70;99.90;;;;;;5083787;28;20937;-66
2023/03/25 07:29:37;;;;;;;1999.90;999.90;;;9.70;99.90;;;;;;5086934;28;20777;-65
2023/03/25 07:32:05;;;;;;;1999.90;999.90;;;9.80;99.90;;;;;;5089868;28;21008;-66
2023/03/25 07:34:33;;;;;;;1999.90;999.90;;;9.90;99.90;;;;;;5089145;28;20899;-65
2023/03/25 07:36:59;;;;;;;1999.90;999.90;;;10.20;99.90;;;;;;5082020;28;20406;-63
2023/03/25 07:39:26;;;;;;;1999.90;999.90;;;10.50;99.90;;;;;;5089743;28;20818;-66
2023/03/25 07:41:53;;;;;;;1999.90;999.90;;;10.60;99.90;;;;;;5080432;28;20464;-65
2023/03/25 07:44:20;;;;;;;1999.90;999.90;;;10.60;99.90;;;;;;5089446;28;20414;-66
2023/03/25 07:46:47;;;;;;;1999.90;999.90;;;10.70;99.90;;;;;;5088862;28;20822;-63
2023/03/25 07:49:14;;;;;;;1999.90;999.90;;;11.10;99.90;;;;;;5080744;28;20409;-63
2023/03/25 07:51:43;;;;;;;1999.90;999.90;;;11.20;99.90;;;;;;5087260;28;20524;-65
2023/03/25 07:54:10;;;;;;;1999.90;999.90;;;11.30;99.90;;;;;;5088622;28;21067;-66
2023/03/25 07:56:37;;;;;;;1999.90;999.90;;;11.20;99.90;;;;;;5090523;28;20410;-67
2023/03/25 07:59:04;;;;;;;1999.90;999.90;;;11.20;99.90;;;;;;5089589;28;20414;-64
2023/03/25 08:01:31;;;;;;;1999.90;999.90;;;11.30;99.90;;;;;;5085607;28;20427;-63
2023/03/25 08:03:59;;;;;;;1999.90;999.90;;;11.60;99.90;;;;;;5091054;28;20422;-63
2023/03/25 08:06:26;;;;;;;1999.90;999.90;;;11.90;99.90;;;;;;5078971;28;20534;-63
2023/03/25 08:08:54;;;;;;;1999.90;999.90;;;12.10;99.90;;;;;;5089260;28;20414;-63
2023/03/25 08:11:21;;;;;;;1999.90;999.90;;;12.20;99.90;;;;;;5089504;28;20777;-64
2023/03/25 08:13:47;;;;;;;1999.90;999.90;;;12.10;99.90;;;;;;5088694;28;20420;-61
2023/03/25 08:16:15;;;;;;;1999.90;999.90;;;11.70;99.90;;;;;;5088726;28;20437;-64
2023/03/25 08:18:43;;;;;;;1999.90;999.90;;;11.50;99.90;;;;;;5088532;28;20833;-63
2023/03/25 08:21:10;;;;;;;1999.90;999.90;;;11.50;99.90;;;;;;5084545;28;20920;-61
2023/03/25 08:23:37;;;;;;;1999.90;999.90;;;11.50;99.90;;;;;;5088962;28;20418;-63
2023/03/25 08:26:06;;;;;;;1999.90;999.90;;;11.50;99.90;;;;;;5082218;28;20418;-62
2023/03/25 08:28:33;;;;;;;1999.90;999.90;;;11.70;99.90;;;;;;5088780;28;20434;-62
2023/03/25 08:31:01;;;;;;;1999.90;999.90;;;11.80;99.90;;;;;;5087836;28;20414;-63
2023/03/25 08:33:32;;;;;;;1999.90;999.90;;;11.80;99.90;;;;;;5089187;28;20918;-64
2023/03/25 08:36:01;;;;;;;1999.90;999.90;;;12.10;99.90;;;;;;5082677;28;20476;-64
2023/03/25 08:38:30;;;;;;;1999.90;999.90;;;12.10;99.90;;;;;;5089101;28;20416;-64
2023/03/25 08:40:57;;;;;;;1999.90;999.90;;;12.10;99.90;;;;;;5087007;28;20464;-62
2023/03/25 08:43:26;;;;;;;1999.90;999.90;;;12.10;99.90;;;;;;5089126;28;20426;-64
2023/03/25 08:45:53;;;;;;;1999.90;999.90;;;11.80;99.90;;;;;;5088474;28;20413;-64
2023/03/25 08:48:21;;;;;;;1999.90;999.90;;;11.50;99.90;;;;;;5089179;28;20429;-64
2023/03/25 08:50:48;;;;;;;1999.90;999.90;;;11.60;99.90;;;;;;5088275;28;20435;-62
2023/03/25 08:53:15;;;;;;;1999.90;999.90;;;11.50;99.90;;;;;;5088061;28;20935;-64
2023/03/25 08:55:41;;;;;;;1999.90;999.90;;;11.60;99.90;;;;;;5088016;28;20433;-64
2023/03/25 08:58:11;;;;;;;1999.90;999.90;;;11.70;99.90;;;;;;5088204;28;20455;-64
2023/03/25 09:00:40;;;;;;;1999.90;999.90;;;11.70;99.90;;;;;;5088214;28;20418;-64
2023/03/25 09:03:07;;;;;;;1999.90;999.90;;;12.20;99.90;;;;;;5088156;28;20488;-63
2023/03/25 09:05:36;;;;;;;1999.90;999.90;;;12.40;99.90;;;;;;5087361;28;20446;-64
2023/03/25 09:08:04;;;;;;;1999.90;999.90;;;12.50;99.90;;;;;;5081816;28;20425;-64
2023/03/25 09:10:31;;;;;;;1999.90;999.90;;;12.60;99.90;;;;;;5088817;28;20418;-65
2023/03/25 09:12:57;;;;;;;1999.90;999.90;;;12.60;99.90;;;;;;5088131;28;20413;-62
2023/03/25 09:15:25;;;;;;;1999.90;999.90;;;12.50;99.90;;;;;;5081799;28;20421;-63
2023/03/25 09:17:53;;;;;;;1999.90;999.90;;;12.50;99.90;;;;;;5077113;28;20434;-65
2023/03/25 09:20:20;;;;;;;1999.90;999.90;;;12.50;99.90;;;;;;5077568;28;20506;-64
2023/03/25 09:22:46;;;;;;;1999.90;999.90;;;12.40;99.90;;;;;;5076312;28;20473;-63
2023/03/25 09:25:13;;;;;;;1999.90;999.90;;;12.40;99.90;;;;;;5081288;28;20415;-65
2023/03/25 09:27:40;;;;;;;1999.90;999.90;;;12.40;99.90;;;;;;5084020;28;21221;-65
2023/03/25 09:30:08;;;;;;;1999.90;999.90;;;12.30;99.90;;;;;;5084665;28;20846;-65
2023/03/25 09:32:35;;;;;;;1999.90;999.90;;;12.10;99.90;;;;;;5086952;28;20463;-65
2023/03/25 09:35:04;;;;;;;1999.90;999.90;;;11.90;99.90;;;;;;5075014;28;20423;-65
2023/03/25 09:37:30;;;;;;;1999.90;999.90;;;12.10;99.90;;;;;;5083583;28;20418;-65
2023/03/25 09:39:57;;;;;;;1999.90;999.90;;;12.10;99.90;;;;;;5076104;28;20473;-65
2023/03/25 09:42:37;;;;;;;1999.90;999.90;;;12.40;99.90;;;;;;5080602;28;20445;-65
2023/03/25 09:45:14;;;;;;;1999.90;999.90;;;12.50;99.90;;;;;;5079875;28;20421;-65
2023/03/25 09:47:50;;;;;;;1999.90;999.90;;;12.30;99.90;;;;;;5086544;28;20495;-65
2023/03/25 09:50:20;;;;;;;1999.90;999.90;;;12.30;99.90;;;;;;5085583;28;20876;-65
2023/03/25 09:52:53;;;;;;;1999.90;999.90;;;12.50;99.90;;;;;;5084931;28;20410;-64
2023/03/25 09:55:24;;;;;;;1999.90;999.90;;;12.70;99.90;;;;;;5084504;28;20429;-65
2023/03/25 09:57:56;;;;;;;1999.90;999.90;;;12.70;99.90;;;;;;5077246;28;20443;-64
2023/03/25 10:00:24;;;;;;;1999.90;999.90;;;12.40;99.90;;;;;;5080900;28;20429;-64
2023/03/25 10:02:59;;;;;;;1999.90;999.90;;;12.40;99.90;;;;;;5081533;28;20449;-65
2023/03/25 10:05:48;;;;;;;1999.90;999.90;;;12.70;99.90;;;;;;5086350;28;20916;-65
2023/03/25 10:08:23;;;;;;;1999.90;999.90;;;12.70;99.90;;;;;;5080825;28;20468;-65
2023/03/25 10:11:00;;;;;;;1999.90;999.90;;;12.00;99.90;;;;;;5087205;28;20418;-65
2023/03/25 10:13:36;;;;;;;1999.90;999.90;;;12.20;99.90;;;;;;5087217;28;20513;-64
2023/03/25 10:16:14;;;;;;;1999.90;999.90;;;12.10;99.90;;;;;;5079341;28;20410;-64
2023/03/25 10:18:53;;;;;;;1999.90;999.90;;;12.10;99.90;;;;;;5082523;28;20425;-63
2023/03/25 10:21:27;;;;;;;1999.90;999.90;;;12.30;99.90;;;;;;5082990;28;20413;-64
2023/03/25 10:24:04;;;;;;;1999.90;999.90;;;12.20;99.90;;;;;;5077468;28;20425;-64
2023/03/25 10:26:40;;;;;;;1999.90;999.90;;;12.00;99.90;;;;;;5086696;28;20521;-64
2023/03/25 10:29:12;;;;;;;1999.90;999.90;;;12.00;99.90;;;;;;5088027;28;20453;-64
2023/03/25 10:31:44;;;;;;;1999.90;999.90;;;11.90;99.90;;;;;;5074118;28;20420;-64
2023/03/25 10:34:17;;;;;;;1999.90;999.90;;;12.10;99.90;;;;;;5083367;28;20425;-64
2023/03/25 10:36:50;;;;;;;1999.90;999.90;;;12.70;99.90;;;;;;5082594;28;20493;-64
2023/03/25 10:39:19;;;;;;;1999.90;999.90;;;12.20;99.90;;;;;;5091010;28;20409;-64
2023/03/25 10:41:51;;;;;;;1999.90;999.90;;;12.10;99.90;;;;;;5088002;28;21120;-64
2023/03/25 10:44:20;;;;;;;1999.90;999.90;;;12.40;99.90;;;;;;5075449;28;20807;-64
2023/03/25 10:46:52;;;;;;;1999.90;999.90;;;12.60;99.90;;;;;;5074617;28;20410;-65
2023/03/25 10:49:21;;;;;;;1999.90;999.90;;;12.60;99.90;;;;;;5087767;28;20459;-65
2023/03/25 10:51:52;;;;;;;1999.90;999.90;;;12.60;99.90;;;;;;5087522;28;20436;-64
2023/03/25 10:54:21;;;;;;;1999.90;999.90;;;12.80;99.90;;;;;;5075172;28;20514;-65
2023/03/25 10:56:50;;;;;;;1999.90;999.90;;;13.10;99.90;;;;;;5079884;28;20477;-64
2023/03/25 10:59:22;;;;;;;1999.90;999.90;;;13.20;99.90;;;;;;5081367;28;20415;-64
2023/03/25 11:01:50;;;;;;;1999.90;999.90;;;13.50;99.90;;;;;;5077450;28;20442;-64
2023/03/25 11:04:19;;;;;;;1999.90;999.90;;;13.80;99.90;;;;;;5087381;28;20422;-63
2023/03/25 11:06:51;;;;;;;1999.90;999.90;;;13.80;99.90;;;;;;5072111;28;20873;-65
2023/03/25 11:09:24;;;;;;;1999.90;999.90;;;13.60;99.90;;;;;;5077549;28;20534;-64
2023/03/25 11:11:52;;;;;;;1999.90;999.90;;;13.40;99.90;;;;;;5086308;28;20911;-64
2023/03/25 11:14:23;;;;;;;1999.90;999.90;;;13.20;99.90;;;;;;5081414;28;20409;-65
2023/03/25 11:16:54;;;;;;;1999.90;999.90;;;13.20;99.90;;;;;;5085541;28;20566;-64
2023/03/25 11:19:26;;;;;;;1999.90;999.90;;;13.30;99.90;;;;;;5072270;28;20461;-65
2023/03/25 11:21:55;;;;;;;1999.90;999.90;;;13.30;99.90;;;;;;5077195;28;20411;-64
2023/03/25 11:24:27;;;;;;;1999.90;999.90;;;13.20;99.90;;;;;;5087420;28;20410;-65
2023/03/25 11:26:54;;;;;;;1999.90;999.90;;;13.40;99.90;;;;;;5087228;28;20414;-63
2023/03/25 11:29:25;;;;;;;1999.90;999.90;;;13.50;99.90;;;;;;5079298;28;20514;-65
2023/03/25 11:32:05;;;;;;;1999.90;999.90;;;13.70;99.90;;;;;;5072147;28;20885;-64
2023/03/25 11:34:32;;;;;;;1999.90;999.90;;;13.70;99.90;;;;;;5082181;28;20422;-64
2023/03/25 11:37:03;;;;;;;1999.90;999.90;;;13.70;99.90;;;;;;5086066;28;20437;-64
2023/03/25 11:39:35;;;;;;;1999.90;999.90;;;13.60;99.90;;;;;;5086299;28;20500;-64
2023/03/25 11:42:14;;;;;;;1999.90;999.90;;;13.70;99.90;;;;;;5078331;28;20485;-64
2023/03/25 11:44:41;;;;;;;1999.90;999.90;;;13.70;99.90;;;;;;5073615;28;20431;-64
2023/03/25 11:47:10;;;;;;;1999.90;999.90;;;13.90;99.80;;;;;;5079400;28;20419;-64
2023/03/25 11:49:40;;;;;;;1999.90;999.90;;;13.90;99.30;;;;;;5077425;28;20474;-65
2023/03/25 11:52:09;;;;;;;1999.90;999.90;;;14.10;99.60;;;;;;5085528;28;20765;-65
2023/03/25 11:54:37;;;;;;;1999.90;999.90;;;14.30;99.60;;;;;;5076309;28;20465;-65
2023/03/25 11:57:09;;;;;;;1999.90;999.90;;;14.40;99.90;;;;;;5074802;28;20420;-67
2023/03/25 11:59:38;;;;;;;1999.90;999.90;;;14.50;99.20;;;;;;5084404;28;21004;-65
2023/03/25 12:02:20;;;;;;;1999.90;999.90;;;14.50;99.60;;;;;;5085682;28;20417;-64
2023/03/25 12:04:56;;;;;;;1999.90;999.90;;;14.60;98.40;;;;;;5084633;28;20429;-64
2023/03/25 12:07:24;;;;;;;1999.90;999.90;;;14.50;99.10;;;;;;5077935;28;20426;-63
2023/03/25 12:09:56;;;;;;;1999.90;999.90;;;14.20;98.80;;;;;;5080314;28;20513;-64
2023/03/25 12:12:34;;;;;;;1999.90;999.90;;;14.10;99.10;;;;;;5080229;28;20481;-64
2023/03/25 12:15:11;;;;;;;1999.90;999.90;;;14.50;99.50;;;;;;5085088;28;20841;-65
2023/03/25 12:17:50;;;;;;;1999.90;999.90;;;14.40;98.80;;;;;;5083657;28;20433;-63